Portada
METAR-TAF:

METAR-TAF

Aeroports :

Mersing, Malàisia

latitud: 02-23-00N, longitud: 103-51-34E, altitud: 3 m

Observació

L'informe es va fer fa 1 hora i 3 minuts, a les 08:00 UTC
Vent 14 kt del Est/Sud-Est, variant entre Nord-Est i Sud-Est
Temperatura 30°C
Humitat 79%
Pressió 1006 hPa
Visibilitat 10 km o més
Escasses núvols a una alçada de 1700 ft, Cumulonimbus.

METAR: WMAU 020800Z 11014KT 050V130 9999 FEW017CB 30/26 Q1006

Hora: 17:03 (09:03 UTC)


TAF: manca

Observacions i pronòstics meteorològics de més de 4000 aeroports (METAR i TAF).

Les estacions disponibles són els punts grocs i vermells al mapa.

Posi el ratolí al punt desitjat per veure el nom de l'estació.

Feu clic per veure les observacions i els pronòstics meteorològics.

Per canviar el mapa: feu clic els botons verds amb una creu de color negre per apropar; al botó verd amb un guió per allunyar la imatge; o en les fletxes verdes per a mapes adjacents.


METAR-TAF: